Pagrindinis puslapis
METAR-TAF:

METAR-TAF

Oro uostai :

Edson, Alberta, Kanada

platuma: 53-35N, ilguma: 116-28W, Aukštis: 921 m

Dabartinis oras

Ataskaita buvo paskelbta 31 minutes, ne 14:00 UTC
Vėjas 4 kt iš Vakarų
Temperatūra -19°C
Drėgmė 84%
Slėgis 1022 hPa
Matomumas: 14.5 km
Giedras dangus

METAR: CYET 191400Z AUTO 28004KT 9SM CLR M19/M21 A3019 RMK SLP303

Laikas: 07:31 (14:31 UTC)


TAF: trūkstamas

Orai ataskaitas ir orų prognozės (METAR, TAF).

turimą stotys yra geltonos ir raudonos taškus žemėlapyje.

Perkelti pele per norėdami pamatyti stoties vardą.

Tada spustelėkite, norėdami matyti oro stebėjimo ir prognozės.

Norėdami pakeisti žemėlapį: spustelėkite ant žalios mygtukų su juodo kryžiaus žemyn,; žalią mygtuką su brūkšneliu, jei norite nutolinti; arba žalių rodyklių gretimoms žemėlapius.


METAR-TAF: